Time;durP1;ratioP1;P1;durP2;ratioP2;P2;SDS_P1;SDS_P2;PMS_P1;PMS_P2;Temp;Humidity;BMP_temperature;BMP_pressure;BME280_temperature;BME280_humidity;BME280_pressure;Samples;Min_cycle;Max_cycle;Signal;HPM_P1;HPM_P2
2023/01/14 00:00:11;;;;;;;4.88;1.50;;;;;;;6.80;100.00;98360.97;2587510;28;20050;-85
2023/01/14 00:01:36;;;;;;;2.28;0.95;;;;;;;6.78;100.00;98363.59;2587262;28;20046;-85
2023/01/14 00:02:52;;;;;;;4.88;0.93;;;;;;;6.85;100.00;98364.38;2587318;28;20227;-87
2023/01/14 00:04:07;;;;;;;1.33;1.15;;;;;;;6.66;100.00;98361.16;2587418;28;20045;-85
2023/01/14 00:05:23;;;;;;;2.30;1.48;;;;;;;6.69;100.00;98358.50;2587288;28;20120;-86
2023/01/14 00:06:38;;;;;;;6.30;1.30;;;;;;;6.78;100.00;98358.38;2587287;28;20085;-85
2023/01/14 00:07:54;;;;;;;4.70;1.48;;;;;;;6.63;100.00;98356.84;2586998;28;20116;-88
2023/01/14 00:09:13;;;;;;;2.97;1.00;;;;;;;6.68;100.00;98354.19;2587228;28;20057;-91
2023/01/14 00:10:28;;;;;;;2.50;0.93;;;;;;;6.67;100.00;98352.47;2587214;28;20080;-87
2023/01/14 00:11:46;;;;;;;4.90;0.90;;;;;;;6.79;100.00;98347.09;2587260;28;20413;-87
2023/01/14 00:13:02;;;;;;;1.92;0.80;;;;;;;6.62;100.00;98353.41;2587019;28;20141;-87
2023/01/14 00:14:23;;;;;;;1.15;0.60;;;;;;;6.59;100.00;98350.84;2587275;28;20496;-85
2023/01/14 00:15:39;;;;;;;1.02;0.63;;;;;;;6.61;100.00;98341.28;2587063;28;20100;-85
2023/01/14 00:16:55;;;;;;;3.88;1.13;;;;;;;6.83;100.00;98353.13;2587024;28;20151;-86
2023/01/14 00:18:11;;;;;;;4.07;1.35;;;;;;;6.70;100.00;98344.59;2587006;28;20058;-84
2023/01/14 00:19:27;;;;;;;5.35;1.40;;;;;;;6.78;100.00;98343.66;2587225;28;20666;-85
2023/01/14 00:20:43;;;;;;;1.45;0.88;;;;;;;6.66;100.00;98342.94;2586847;28;20056;-87
2023/01/14 00:21:58;;;;;;;2.28;0.90;;;;;;;6.45;100.00;98340.59;2587137;28;20053;-86
2023/01/14 00:23:14;;;;;;;0.93;0.82;;;;;;;6.61;100.00;98354.28;2587000;28;20081;-86
2023/01/14 00:24:30;;;;;;;4.35;1.00;;;;;;;6.66;100.00;98355.94;2587200;28;20058;-85
2023/01/14 00:25:45;;;;;;;1.25;0.90;;;;;;;6.57;100.00;98352.59;2587174;28;20060;-85
2023/01/14 00:27:01;;;;;;;2.28;0.95;;;;;;;6.61;100.00;98343.88;2587220;28;20050;-85
2023/01/14 00:28:17;;;;;;;5.47;0.88;;;;;;;6.60;100.00;98354.28;2587402;28;20062;-84
2023/01/14 00:29:34;;;;;;;1.58;0.68;;;;;;;6.54;100.00;98355.22;2586986;28;20054;-84
2023/01/14 00:30:50;;;;;;;2.80;1.20;;;;;;;6.56;100.00;98363.88;2587073;28;20468;-85
2023/01/14 00:32:05;;;;;;;2.15;1.00;;;;;;;6.57;100.00;98354.34;2587060;28;20049;-84
2023/01/14 00:33:21;;;;;;;2.85;1.10;;;;;;;6.57;100.00;98359.53;2586982;28;20426;-84
2023/01/14 00:34:37;;;;;;;3.00;1.13;;;;;;;6.49;100.00;98363.09;2587137;28;20985;-83
2023/01/14 00:35:53;;;;;;;1.70;0.80;;;;;;;6.42;100.00;98357.97;2586775;28;20054;-83
2023/01/14 00:37:08;;;;;;;2.83;1.08;;;;;;;6.57;100.00;98362.13;2587065;28;20065;-85
2023/01/14 00:38:24;;;;;;;1.38;0.90;;;;;;;6.64;100.00;98367.25;2586877;28;20171;-85
2023/01/14 00:39:40;;;;;;;3.00;1.00;;;;;;;6.51;100.00;98365.69;2586947;28;20049;-85
2023/01/14 00:41:14;;;;;;;4.57;0.85;;;;;;;6.42;100.00;98360.56;2587086;28;20481;-85
2023/01/14 00:42:29;;;;;;;2.58;0.90;;;;;;;6.66;100.00;98367.22;2586862;28;20045;-84
2023/01/14 00:43:49;;;;;;;2.80;0.77;;;;;;;6.56;100.00;98365.63;2586694;28;20100;-86
2023/01/14 00:45:05;;;;;;;4.78;1.45;;;;;;;6.58;100.00;98369.06;2586863;28;20053;-85
2023/01/14 00:46:22;;;;;;;2.97;0.80;;;;;;;6.44;100.00;98364.88;2586967;28;20049;-84
2023/01/14 00:47:38;;;;;;;0.55;0.50;;;;;;;6.53;100.00;98374.31;2586845;28;20137;-85
2023/01/14 00:48:54;;;;;;;4.35;1.55;;;;;;;6.48;100.00;98363.97;2586966;28;20136;-84
2023/01/14 00:50:10;;;;;;;2.10;0.80;;;;;;;6.47;100.00;98366.59;2586842;28;20054;-84
2023/01/14 00:51:27;;;;;;;1.85;0.85;;;;;;;6.52;100.00;98372.59;2586705;28;20427;-84
2023/01/14 00:52:42;;;;;;;2.60;1.08;;;;;;;6.31;100.00;98361.59;2586798;28;20077;-85
2023/01/14 00:54:00;;;;;;;2.45;0.60;;;;;;;6.40;100.00;98360.63;2586943;28;20073;-85
2023/01/14 00:55:15;;;;;;;2.53;0.95;;;;;;;6.52;100.00;98364.78;2586302;28;20061;-85
2023/01/14 00:56:31;;;;;;;2.13;1.13;;;;;;;6.36;100.00;98366.75;2586319;28;20038;-84
2023/01/14 00:57:46;;;;;;;6.55;1.13;;;;;;;6.41;100.00;98369.25;2586807;28;20181;-85
2023/01/14 00:59:02;;;;;;;1.95;0.95;;;;;;;6.33;100.00;98361.56;2586552;28;20049;-85
2023/01/14 01:00:18;;;;;;;1.48;0.77;;;;;;;6.33;100.00;98385.84;2586729;28;20049;-84
2023/01/14 01:01:33;;;;;;;3.05;0.98;;;;;;;6.35;100.00;98388.41;2586722;28;20046;-84
2023/01/14 01:02:49;;;;;;;3.03;1.10;;;;;;;6.20;100.00;98385.09;2586566;28;20057;-83
2023/01/14 01:04:05;;;;;;;5.45;1.20;;;;;;;6.26;100.00;98378.13;2586409;28;20056;-88
2023/01/14 01:05:20;;;;;;;2.42;0.75;;;;;;;6.31;100.00;98390.19;2585289;28;20050;-85
2023/01/14 01:06:36;;;;;;;2.10;0.98;;;;;;;6.33;100.00;98393.63;2586149;28;20085;-85
2023/01/14 01:07:51;;;;;;;0.60;0.60;;;;;;;6.28;100.00;98394.56;2587012;28;20500;-84
2023/01/14 01:09:07;;;;;;;3.30;1.10;;;;;;;6.28;100.00;98395.41;2586487;28;21257;-85
2023/01/14 01:10:23;;;;;;;2.33;0.73;;;;;;;6.23;100.00;98410.22;2586826;28;20050;-85
2023/01/14 01:11:38;;;;;;;1.88;0.93;;;;;;;6.29;100.00;98404.09;2586644;28;20099;-85
2023/01/14 01:12:54;;;;;;;18.67;1.30;;;;;;;6.31;100.00;98412.72;2586779;28;20482;-84
2023/01/14 01:14:10;;;;;;;3.58;1.17;;;;;;;6.20;100.00;98400.69;2586572;28;20057;-84
2023/01/14 01:15:25;;;;;;;3.13;2.38;;;;;;;6.15;100.00;98405.09;2586383;28;20060;-87
2023/01/14 01:16:42;;;;;;;2.95;1.00;;;;;;;6.27;100.00;98416.25;2586690;28;20073;-86
2023/01/14 01:17:57;;;;;;;1.70;0.60;;;;;;;6.22;100.00;98418.88;2586456;28;20424;-84
2023/01/14 01:19:13;;;;;;;2.30;0.80;;;;;;;6.28;100.00;98421.41;2586340;28;20049;-84
2023/01/14 01:20:30;;;;;;;3.38;1.10;;;;;;;6.18;100.00;98412.84;2586315;28;20053;-84
2023/01/14 01:21:45;;;;;;;2.58;1.10;;;;;;;6.15;100.00;98410.28;2586462;28;20451;-84
2023/01/14 01:23:02;;;;;;;6.80;1.33;;;;;;;6.32;100.00;98414.44;2586376;28;20136;-84
2023/01/14 01:24:17;;;;;;;1.75;0.75;;;;;;;6.26;100.00;98410.16;2586131;28;20046;-84
2023/01/14 01:25:33;;;;;;;3.55;0.93;;;;;;;6.13;100.00;98416.38;2586267;28;20500;-83
2023/01/14 01:26:48;;;;;;;4.47;1.13;;;;;;;6.17;100.00;98424.13;2586319;28;20540;-85
2023/01/14 01:28:05;;;;;;;2.70;1.20;;;;;;;6.22;100.00;98416.28;2586670;28;20128;-84
2023/01/14 01:29:20;;;;;;;6.03;1.10;;;;;;;6.35;100.00;98415.28;2586242;28;20069;-84
2023/01/14 01:30:36;;;;;;;3.33;0.70;;;;;;;6.25;100.00;98423.19;2586730;28;20512;-85
2023/01/14 01:31:51;;;;;;;1.30;0.80;;;;;;;6.11;100.00;98421.59;2586441;28;20050;-83
2023/01/14 01:33:07;;;;;;;2.65;0.77;;;;;;;6.24;100.00;98421.47;2586440;28;20050;-87
2023/01/14 01:34:23;;;;;;;3.17;1.00;;;;;;;6.19;100.00;98424.97;2586400;28;20053;-84
2023/01/14 01:35:38;;;;;;;4.28;1.00;;;;;;;6.19;100.00;98424.13;2586294;28;20100;-84
2023/01/14 01:36:54;;;;;;;2.38;1.08;;;;;;;6.05;100.00;98422.53;2586505;28;20049;-83
2023/01/14 01:38:10;;;;;;;2.55;0.73;;;;;;;6.13;100.00;98418.97;2586370;28;20054;-83
2023/01/14 01:39:25;;;;;;;2.03;0.90;;;;;;;6.22;100.00;98431.88;2586142;28;20057;-84
2023/01/14 01:40:41;;;;;;;1.52;0.80;;;;;;;6.19;100.00;98424.13;2586344;28;20599;-83
2023/01/14 01:41:56;;;;;;;6.70;1.00;;;;;;;6.27;100.00;98430.09;2586180;28;20049;-88
2023/01/14 01:43:12;;;;;;;5.00;1.35;;;;;;;6.32;100.00;98433.53;2586289;28;20168;-85
2023/01/14 01:44:28;;;;;;;1.38;0.68;;;;;;;6.22;100.00;98434.47;2586081;28;20417;-84
2023/01/14 01:45:48;;;;;;;3.00;0.98;;;;;;;6.26;100.00;98433.56;2586358;28;20052;-85
2023/01/14 01:47:03;;;;;;;2.75;0.82;;;;;;;6.35;100.00;98433.47;2586356;28;20053;-83
2023/01/14 01:48:26;;;;;;;3.13;0.95;;;;;;;6.28;100.00;98433.56;2585684;28;20137;-85
2023/01/14 01:49:43;;;;;;;0.90;0.55;;;;;;;6.28;100.00;98436.16;2586484;28;20141;-85
2023/01/14 01:51:05;;;;;;;2.78;0.85;;;;;;;6.14;100.00;98446.69;2586053;28;20456;-85
2023/01/14 01:52:26;;;;;;;5.75;1.00;;;;;;;6.11;100.00;98436.31;2586397;28;20053;-83
2023/01/14 01:53:43;;;;;;;5.82;1.00;;;;;;;6.30;100.00;98434.41;2585758;28;20142;-87
2023/01/14 01:55:07;;;;;;;5.45;1.27;;;;;;;6.34;100.00;98438.69;2586211;28;20173;-84
2023/01/14 01:56:27;;;;;;;2.70;1.00;;;;;;;6.18;100.00;98435.41;2585853;28;20061;-84
2023/01/14 01:57:43;;;;;;;2.00;0.90;;;;;;;6.08;100.00;98438.09;2586207;28;20343;-85
2023/01/14 01:59:03;;;;;;;6.63;1.05;;;;;;;6.16;100.00;98438.00;2586163;28;20080;-84
2023/01/14 02:00:19;;;;;;;6.28;0.98;;;;;;;6.29;100.00;98430.97;2586063;28;20054;-83
2023/01/14 02:01:37;;;;;;;3.85;1.02;;;;;;;6.27;100.00;98427.50;2585903;28;20188;-85
2023/01/14 02:02:59;;;;;;;1.77;0.60;;;;;;;6.14;100.00;98436.28;2585848;28;20145;-83
2023/01/14 02:04:15;;;;;;;4.30;1.00;;;;;;;6.01;100.00;98433.84;2586131;28;20141;-86
2023/01/14 02:05:31;;;;;;;4.50;1.10;;;;;;;6.20;100.00;98444.03;2585799;28;20053;-84
2023/01/14 02:06:47;;;;;;;3.72;1.17;;;;;;;6.22;100.00;98442.28;2586012;28;20054;-83
2023/01/14 02:08:03;;;;;;;1.10;0.85;;;;;;;6.12;100.00;98444.13;2586139;28;21003;-85
2023/01/14 02:09:19;;;;;;;3.30;1.30;;;;;;;6.07;100.00;98451.97;2585900;28;20503;-84
2023/01/14 02:10:55;;;;;;;2.75;0.93;;;;;;;6.10;100.00;98456.28;2586077;28;20049;-84
2023/01/14 02:12:25;;;;;;;3.50;1.00;;;;;;;6.19;100.00;98452.72;2545480;28;20047;-85
2023/01/14 02:13:56;;;;;;;3.10;1.20;;;;;;;6.11;100.00;98457.13;2589584;28;20046;-83
2023/01/14 02:15:42;;;;;;;3.22;1.40;;;;;;;6.10;100.00;98450.19;2585735;28;20045;-84
2023/01/14 02:17:20;;;;;;;3.00;0.82;;;;;;;6.22;100.00;98456.16;2576373;28;20062;-88
2023/01/14 02:19:23;;;;;;;3.08;1.00;;;;;;;6.14;100.00;98452.75;2585830;28;20057;-83
2023/01/14 02:20:46;;;;;;;4.15;1.15;;;;;;;6.07;100.00;98459.75;2544478;29;20055;-84
2023/01/14 02:22:20;;;;;;;2.78;1.27;;;;;;;6.11;100.00;98462.31;2561303;28;20479;-83
2023/01/14 02:23:53;;;;;;;2.08;1.00;;;;;;;6.15;100.00;98454.47;2585859;28;20050;-84
2023/01/14 02:25:28;;;;;;;3.00;1.20;;;;;;;6.27;100.00;98463.88;2585985;28;20058;-85
2023/01/14 02:26:43;;;;;;;6.93;1.40;;;;;;;6.12;100.00;98466.63;2585963;28;20126;-84
2023/01/14 02:28:11;;;;;;;4.07;1.38;;;;;;;6.11;100.00;98468.41;2584918;28;20537;-84
2023/01/14 02:29:52;;;;;;;4.20;1.15;;;;;;;6.08;100.00;98469.28;2585567;28;20050;-84
2023/01/14 02:31:26;;;;;;;4.15;1.20;;;;;;;5.97;100.00;98476.28;2586056;28;20496;-84
2023/01/14 02:32:51;;;;;;;3.40;0.98;;;;;;;6.02;100.00;98482.34;2585972;28;20065;-84
2023/01/14 02:34:18;;;;;;;3.30;1.08;;;;;;;6.13;100.00;98481.34;2585609;28;20824;-86
2023/01/14 02:35:43;;;;;;;5.20;1.33;;;;;;;5.80;100.00;98476.44;2585787;28;20363;-84
2023/01/14 02:37:08;;;;;;;5.38;1.52;;;;;;;5.97;100.00;98481.47;2585897;28;20111;-84
2023/01/14 02:38:42;;;;;;;5.13;1.20;;;;;;;6.10;100.00;98487.47;2585703;28;20085;-85
2023/01/14 02:40:03;;;;;;;7.45;1.33;;;;;;;6.28;100.00;98489.00;2585614;28;20144;-84
2023/01/14 02:45:24;;;;;;;2.35;1.00;;;;;;;6.06;100.00;98497.03;2585626;28;20046;-84
2023/01/14 02:46:49;;;;;;;4.38;1.25;;;;;;;6.03;100.00;98499.66;2585414;28;20081;-87
2023/01/14 02:48:06;;;;;;;5.40;1.40;;;;;;;6.08;100.00;98497.88;2585711;28;20562;-88
2023/01/14 02:49:35;;;;;;;11.20;1.40;;;;;;;6.05;100.00;98494.44;2585590;28;20107;-87
2023/01/14 02:50:51;;;;;;;3.05;1.05;;;;;;;5.77;100.00;98499.81;2585725;28;20628;-85
2023/01/14 02:52:07;;;;;;;1.90;0.50;;;;;;;5.71;100.00;98498.13;2585504;28;20049;-84
2023/01/14 02:53:23;;;;;;;2.17;1.30;;;;;;;5.82;100.00;98502.38;2585614;28;20058;-83
2023/01/14 02:54:38;;;;;;;2.70;0.98;;;;;;;5.75;100.00;98502.44;2585579;28;20042;-84
2023/01/14 02:55:55;;;;;;;2.30;1.20;;;;;;;5.82;100.00;98495.47;2585412;28;20511;-84
2023/01/14 02:57:40;;;;;;;1.05;0.68;;;;;;;5.80;100.00;98498.06;2585639;28;20393;-84
2023/01/14 02:59:24;;;;;;;1.58;0.68;;;;;;;5.85;100.00;98494.56;2585384;28;20058;-82
2023/01/14 03:01:24;;;;;;;3.63;1.10;;;;;;;5.83;100.00;98493.72;2567888;28;20496;-84
2023/01/14 03:02:58;;;;;;;3.83;0.82;;;;;;;6.00;100.00;98497.03;2585582;28;20074;-84
2023/01/14 03:04:57;;;;;;;3.28;1.10;;;;;;;6.08;100.00;98495.28;2585505;28;20061;-84
2023/01/14 03:06:35;;;;;;;4.28;0.75;;;;;;;5.98;100.00;98503.97;2585669;28;20066;-83
2023/01/14 03:08:02;;;;;;;2.05;0.65;;;;;;;6.05;100.00;98504.81;2585674;28;20069;-83
2023/01/14 03:10:00;;;;;;;3.15;1.00;;;;;;;6.06;100.00;98507.41;2585216;28;20537;-84
2023/01/14 03:11:16;;;;;;;5.28;1.02;;;;;;;6.24;100.00;98500.31;2575064;28;20056;-84
2023/01/14 03:12:42;;;;;;;6.07;1.10;;;;;;;6.11;100.00;98504.78;2585416;28;20073;-84
2023/01/14 03:14:24;;;;;;;2.40;0.93;;;;;;;6.19;100.00;98502.13;2585463;28;20053;-84
2023/01/14 03:15:49;;;;;;;1.70;0.90;;;;;;;6.23;100.00;98498.59;2585591;28;20049;-86
2023/01/14 03:17:13;;;;;;;4.20;1.35;;;;;;;5.92;100.00;98504.03;2585394;28;20478;-83
2023/01/14 03:18:45;;;;;;;5.72;1.02;;;;;;;5.98;100.00;98511.78;2585602;28;20489;-84
2023/01/14 03:20:09;;;;;;;3.42;1.20;;;;;;;6.03;100.00;98512.66;2585482;28;20069;-84
2023/01/14 03:21:30;;;;;;;3.67;1.30;;;;;;;5.94;100.00;98512.69;2585293;28;20065;-85
2023/01/14 03:22:49;;;;;;;4.70;1.33;;;;;;;6.10;100.00;98505.66;2585158;28;20050;-89
2023/01/14 03:24:13;;;;;;;3.60;1.00;;;;;;;6.13;100.00;98504.75;2585466;28;20053;-84
2023/01/14 03:25:32;;;;;;;4.78;1.15;;;;;;;5.82;100.00;98505.88;2585077;28;20049;-85
2023/01/14 03:26:51;;;;;;;5.25;1.27;;;;;;;5.76;100.00;98511.09;2585017;28;20054;-83
2023/01/14 03:28:09;;;;;;;2.35;0.90;;;;;;;5.76;100.00;98517.16;2585354;28;20153;-86
2023/01/14 03:29:31;;;;;;;4.80;1.20;;;;;;;5.88;100.00;98513.59;2587116;28;20100;-84
2023/01/14 03:30:55;;;;;;;3.10;1.30;;;;;;;5.77;100.00;98515.41;2587896;28;20070;-84
2023/01/14 03:32:36;;;;;;;3.53;0.90;;;;;;;5.79;100.00;98521.44;2587666;28;20052;-84
2023/01/14 03:33:56;;;;;;;2.30;1.00;;;;;;;5.69;100.00;98522.41;2587674;28;20075;-83
2023/01/14 03:35:21;;;;;;;4.63;1.08;;;;;;;5.77;100.00;98513.69;2587570;28;20054;-84
2023/01/14 03:36:39;;;;;;;2.63;1.08;;;;;;;5.77;100.00;98518.00;2587109;28;20046;-84
2023/01/14 03:38:03;;;;;;;3.47;1.20;;;;;;;5.85;100.00;98515.34;2587394;28;20046;-85
2023/01/14 03:39:23;;;;;;;3.47;1.17;;;;;;;5.87;100.00;98517.06;2587702;28;20661;-83
2023/01/14 03:40:40;;;;;;;4.38;1.02;;;;;;;5.83;100.00;98522.28;2587491;28;20489;-84
2023/01/14 03:42:20;;;;;;;4.03;1.30;;;;;;;5.90;100.00;98524.00;2587337;28;20164;-84
2023/01/14 03:44:04;;;;;;;4.68;1.10;;;;;;;5.72;100.00;98514.59;2587622;28;20512;-84
2023/01/14 03:45:29;;;;;;;3.50;1.10;;;;;;;5.69;100.00;98514.63;2584538;28;20132;-83
2023/01/14 03:46:45;;;;;;;3.10;0.88;;;;;;;5.74;100.00;98520.63;2587337;28;20095;-85
2023/01/14 03:48:02;;;;;;;3.92;1.70;;;;;;;5.62;100.00;98512.03;2587485;28;20703;-84
2023/01/14 03:49:18;;;;;;;2.75;1.10;;;;;;;5.71;100.00;98518.91;2587108;28;20100;-84
2023/01/14 03:50:56;;;;;;;1.77;0.70;;;;;;;5.60;100.00;98519.00;2586667;28;20531;-83
2023/01/14 03:52:41;;;;;;;2.40;0.90;;;;;;;5.75;100.00;98512.84;2557543;28;20055;-83
2023/01/14 03:54:21;;;;;;;4.70;1.17;;;;;;;5.69;100.00;98507.66;2545699;29;20051;-83
2023/01/14 03:55:50;;;;;;;3.05;0.98;;;;;;;5.81;100.00;98504.13;2571521;28;20060;-85
2023/01/14 03:57:44;;;;;;;3.22;0.95;;;;;;;5.61;100.00;98506.88;2586888;28;20073;-83
2023/01/14 03:59:06;;;;;;;5.10;1.23;;;;;;;5.78;100.00;98512.81;2587246;28;20722;-84
2023/01/14 04:00:45;;;;;;;7.18;1.40;;;;;;;6.09;100.00;98516.94;2587166;28;20053;-87
2023/01/14 04:02:03;;;;;;;4.18;1.08;;;;;;;6.05;100.00;98517.81;2587066;28;20061;-84
2023/01/14 04:03:20;;;;;;;4.15;1.13;;;;;;;5.89;100.00;98519.66;2587133;28;20050;-83
2023/01/14 04:04:36;;;;;;;4.28;0.73;;;;;;;5.58;100.00;98525.06;2587014;28;20054;-87
2023/01/14 04:05:53;;;;;;;3.47;0.88;;;;;;;5.74;100.00;98529.31;2586971;28;20904;-84
2023/01/14 04:07:09;;;;;;;1.30;0.90;;;;;;;5.72;100.00;98527.56;2587090;28;20263;-83
2023/01/14 04:08:25;;;;;;;2.50;0.93;;;;;;;5.80;100.00;98536.19;2587435;28;20138;-84
2023/01/14 04:09:41;;;;;;;4.90;1.20;;;;;;;5.91;100.00;98531.75;2586822;28;20100;-86
2023/01/14 04:10:56;;;;;;;3.05;0.80;;;;;;;5.56;100.00;98532.00;2587465;28;20045;-85
2023/01/14 04:12:12;;;;;;;4.75;1.02;;;;;;;5.60;100.00;98538.94;2587377;28;20054;-83
2023/01/14 04:15:20;;;;;;;4.22;0.60;;;;;;;5.76;100.00;98550.94;2587354;28;20491;-84
2023/01/14 04:16:36;;;;;;;2.63;1.15;;;;;;;5.97;100.00;98549.03;2587183;28;20062;-85
2023/01/14 04:17:52;;;;;;;5.18;1.10;;;;;;;5.92;100.00;98548.22;2586613;28;20050;-85
2023/01/14 04:19:07;;;;;;;3.10;1.00;;;;;;;6.14;100.00;98548.06;2587441;28;20053;-84
2023/01/14 04:20:23;;;;;;;2.58;0.98;;;;;;;6.18;100.00;98549.78;2587084;28;20058;-83
2023/01/14 04:21:39;;;;;;;3.30;1.10;;;;;;;6.33;100.00;98552.25;2587207;28;20497;-84
2023/01/14 04:22:55;;;;;;;2.38;0.90;;;;;;;6.26;100.00;98555.78;2586952;28;20057;-85
2023/01/14 04:24:10;;;;;;;3.35;1.02;;;;;;;6.13;100.00;98552.41;2587172;28;20511;-84
2023/01/14 04:25:26;;;;;;;2.72;1.10;;;;;;;5.85;100.00;98556.91;2586963;28;20068;-84
2023/01/14 04:26:42;;;;;;;3.15;1.30;;;;;;;5.84;100.00;98552.59;2585987;28;20125;-89
2023/01/14 04:27:58;;;;;;;3.22;0.95;;;;;;;5.82;100.00;98551.75;2586533;28;20083;-84
2023/01/14 04:29:13;;;;;;;2.97;1.08;;;;;;;5.79;100.00;98550.03;2587051;28;20054;-85
2023/01/14 04:30:29;;;;;;;3.20;1.10;;;;;;;5.74;100.00;98552.69;2586963;28;20073;-84
2023/01/14 04:31:44;;;;;;;3.80;0.90;;;;;;;5.53;100.00;98555.41;2586054;28;20050;-84
2023/01/14 04:33:00;;;;;;;2.97;0.90;;;;;;;5.35;100.00;98554.63;2586243;28;20052;-84
2023/01/14 04:34:16;;;;;;;2.33;0.80;;;;;;;5.14;100.00;98561.63;2585471;28;20045;-84
2023/01/14 04:35:37;;;;;;;7.15;0.98;;;;;;;5.21;100.00;98557.28;2585939;28;20068;-87
2023/01/14 04:36:53;;;;;;;1.52;0.95;;;;;;;5.37;100.00;98558.09;2586046;28;20140;-89
2023/01/14 04:38:08;;;;;;;4.60;0.82;;;;;;;4.95;100.00;98553.94;2586646;28;20050;-85
2023/01/14 04:39:24;;;;;;;3.50;1.00;;;;;;;4.84;100.00;98560.88;2585048;28;20061;-84
2023/01/14 04:40:39;;;;;;;5.50;1.42;;;;;;;4.98;100.00;98562.56;2586532;28;20467;-85
2023/01/14 04:43:30;;;;;;;5.65;1.33;;;;;;;5.18;100.00;98570.28;2586893;28;20049;-85
2023/01/14 04:44:47;;;;;;;3.05;1.60;;;;;;;5.23;100.00;98566.78;2586573;28;20156;-84
2023/01/14 04:46:03;;;;;;;6.03;1.10;;;;;;;5.02;100.00;98570.34;2586867;28;20133;-84
2023/01/14 04:47:19;;;;;;;4.20;1.10;;;;;;;5.04;100.00;98563.41;2586087;28;20058;-84
2023/01/14 04:48:34;;;;;;;5.07;1.30;;;;;;;5.08;100.00;98566.88;2586507;28;20452;-84
2023/01/14 04:49:50;;;;;;;5.40;1.08;;;;;;;5.09;100.00;98573.78;2586542;28;20046;-84
2023/01/14 04:51:06;;;;;;;3.33;1.15;;;;;;;5.22;100.00;98569.38;2586594;28;20053;-84
2023/01/14 04:52:26;;;;;;;1.90;0.98;;;;;;;5.33;100.00;98569.38;2586875;28;20045;-84
2023/01/14 04:53:41;;;;;;;4.13;1.40;;;;;;;5.39;100.00;98573.66;2586900;28;20049;-83
2023/01/14 04:54:57;;;;;;;3.20;1.27;;;;;;;5.41;100.00;98569.31;2587077;28;20060;-84
2023/01/14 04:56:13;;;;;;;6.25;1.30;;;;;;;5.45;100.00;98574.50;2586176;28;20633;-87
2023/01/14 04:57:28;;;;;;;3.55;1.17;;;;;;;5.38;100.00;98577.97;2586709;28;20065;-84
2023/01/14 04:58:44;;;;;;;3.13;1.00;;;;;;;5.06;100.00;98581.59;2586880;28;20069;-88
2023/01/14 04:59:59;;;;;;;4.47;1.08;;;;;;;5.30;100.00;98587.53;2586881;28;20077;-83
2023/01/14 05:01:15;;;;;;;3.40;0.82;;;;;;;5.05;100.00;98582.44;2586936;28;20417;-83
2023/01/14 05:02:30;;;;;;;1.92;0.90;;;;;;;5.26;100.00;98586.69;2586980;28;20046;-82
2023/01/14 05:03:46;;;;;;;2.83;0.93;;;;;;;5.17;100.00;98582.41;2586828;28;20069;-82
2023/01/14 05:05:02;;;;;;;1.85;1.33;;;;;;;5.15;100.00;98583.28;2586714;28;20045;-83
2023/01/14 05:06:18;;;;;;;2.33;1.00;;;;;;;5.23;100.00;98584.09;2586228;28;20089;-83
2023/01/14 05:07:33;;;;;;;1.52;0.90;;;;;;;5.43;100.00;98578.81;2585839;28;20567;-83
2023/01/14 05:08:49;;;;;;;3.05;1.05;;;;;;;5.40;100.00;98583.19;2586831;28;20042;-83
2023/01/14 05:10:05;;;;;;;4.20;0.90;;;;;;;5.40;100.00;98580.59;2586328;28;20420;-85
2023/01/14 05:11:21;;;;;;;3.70;1.10;;;;;;;5.33;100.00;98587.53;2586157;28;20045;-84
2023/01/14 05:12:36;;;;;;;4.43;1.30;;;;;;;5.35;100.00;98584.03;2586454;28;20057;-83
2023/01/14 05:13:52;;;;;;;3.90;1.00;;;;;;;5.32;100.00;98583.22;2586778;28;20505;-84
2023/01/14 05:15:08;;;;;;;1.95;0.90;;;;;;;5.31;100.00;98587.53;2586673;28;20440;-86
2023/01/14 05:16:24;;;;;;;3.03;1.20;;;;;;;5.31;100.00;98579.75;2586316;28;20061;-84
2023/01/14 05:17:39;;;;;;;1.85;0.82;;;;;;;5.50;100.00;98580.53;2586511;28;20662;-83
2023/01/14 05:18:55;;;;;;;2.03;1.10;;;;;;;5.56;100.00;98583.94;2586829;28;20061;-87
2023/01/14 05:20:11;;;;;;;3.00;0.95;;;;;;;5.35;100.00;98583.19;2586385;28;20104;-83
2023/01/14 05:21:26;;;;;;;3.83;2.15;;;;;;;5.53;100.00;98589.16;2586745;28;20132;-84
2023/01/14 05:22:42;;;;;;;3.97;2.17;;;;;;;5.54;100.00;98583.09;2586494;28;20049;-83
2023/01/14 05:23:58;;;;;;;5.25;2.00;;;;;;;5.61;100.00;98585.66;2586579;28;20054;-87
2023/01/14 05:25:13;;;;;;;4.57;1.80;;;;;;;5.53;100.00;98579.66;2586660;28;20085;-86
2023/01/14 05:26:29;;;;;;;8.40;2.03;;;;;;;5.54;100.00;98586.56;2585383;28;20046;-83
2023/01/14 05:27:45;;;;;;;4.13;1.75;;;;;;;5.31;100.00;98586.69;2585767;28;20045;-88
2023/01/14 05:29:00;;;;;;;4.47;1.70;;;;;;;5.44;100.00;98575.34;2586440;28;20074;-86
2023/01/14 05:30:16;;;;;;;6.00;1.63;;;;;;;5.46;100.00;98581.41;2586212;28;20050;-83
2023/01/14 05:31:32;;;;;;;3.30;1.45;;;;;;;5.49;100.00;98578.78;2586253;28;20500;-83
2023/01/14 05:32:47;;;;;;;4.40;1.70;;;;;;;5.19;100.00;98582.38;2586044;28;20046;-83
2023/01/14 05:34:03;;;;;;;4.88;1.52;;;;;;;5.17;100.00;98582.41;2585366;28;20053;-83
2023/01/14 05:35:19;;;;;;;4.57;1.50;;;;;;;5.41;100.00;98583.16;2585854;28;20413;-83
2023/01/14 05:36:35;;;;;;;6.53;1.42;;;;;;;5.37;100.00;98578.84;2586111;28;20716;-86
2023/01/14 05:37:50;;;;;;;2.95;1.27;;;;;;;5.41;100.00;98582.31;2586058;28;20049;-86
2023/01/14 05:39:06;;;;;;;5.13;1.80;;;;;;;5.55;100.00;98587.41;2586289;28;20045;-84
2023/01/14 05:40:22;;;;;;;3.55;1.63;;;;;;;5.37;100.00;98579.69;2586439;28;20554;-83
2023/01/14 05:45:37;;;;;;;6.05;1.60;;;;;;;5.24;100.00;98588.44;2586456;28;20440;-83
2023/01/14 05:46:21;;;;;;;4.50;1.90;;;;;;;5.43;100.00;98596.13;2586013;28;20045;-84
2023/01/14 05:47:37;;;;;;;4.85;1.58;;;;;;;5.51;100.00;98592.63;2586365;28;20137;-85
2023/01/14 05:48:52;;;;;;;5.88;2.33;;;;;;;5.50;100.00;98596.09;2586253;28;20049;-86
2023/01/14 05:50:10;;;;;;;4.80;1.80;;;;;;;5.45;100.00;98592.69;2585713;28;20049;-85
2023/01/14 05:51:25;;;;;;;5.18;1.85;;;;;;;5.44;100.00;98601.31;2585156;28;20390;-85
2023/01/14 05:52:41;;;;;;;3.13;1.30;;;;;;;5.41;100.00;98596.13;2585377;28;20046;-84
2023/01/14 05:53:56;;;;;;;9.18;1.70;;;;;;;5.40;100.00;98597.00;2585345;28;20056;-84
2023/01/14 05:55:12;;;;;;;4.35;1.48;;;;;;;5.15;100.00;98597.09;2585520;28;20096;-83
2023/01/14 05:56:28;;;;;;;4.60;1.35;;;;;;;5.51;100.00;98595.22;2585433;28;20050;-83
2023/01/14 05:57:43;;;;;;;4.25;1.70;;;;;;;5.58;100.00;98595.19;2585499;28;20048;-85
2023/01/14 05:58:59;;;;;;;3.85;1.38;;;;;;;5.61;100.00;98601.22;2585228;28;20053;-85
2023/01/14 06:06:48;;;;;;;4.63;1.70;;;;;;;5.29;100.00;98604.84;2585023;28;20065;-84
2023/01/14 06:08:04;;;;;;;4.95;1.92;;;;;;;5.45;100.00;98605.66;2584419;28;20495;-83
2023/01/14 06:09:20;;;;;;;5.22;1.70;;;;;;;5.55;100.00;98601.28;2584354;28;20137;-83
2023/01/14 06:10:37;;;;;;;4.75;1.95;;;;;;;5.51;100.00;98600.41;2584862;28;20042;-83
2023/01/14 06:12:05;;;;;;;3.05;1.70;;;;;;;5.59;100.00;98602.97;2585179;28;20073;-83
2023/01/14 06:13:22;;;;;;;6.43;2.65;;;;;;;5.45;100.00;98597.88;2585360;28;20408;-84
2023/01/14 06:14:38;;;;;;;5.95;2.42;;;;;;;5.35;100.00;98607.41;2585873;28;20100;-83
2023/01/14 06:15:55;;;;;;;7.10;2.67;;;;;;;5.32;100.00;98599.63;2586038;28;20053;-83
2023/01/14 06:17:12;;;;;;;5.53;2.35;;;;;;;5.31;100.00;98604.84;2586218;28;20046;-84
2023/01/14 06:18:37;;;;;;;5.75;2.10;;;;;;;5.32;100.00;98602.22;2585941;28;20489;-86
2023/01/14 06:19:52;;;;;;;4.00;1.50;;;;;;;5.08;100.00;98613.56;2585892;28;20060;-83
2023/01/14 06:21:13;;;;;;;3.45;1.42;;;;;;;5.33;100.00;98611.75;2585600;28;20104;-83
2023/01/14 06:22:29;;;;;;;2.70;1.70;;;;;;;5.16;100.00;98609.22;2585791;28;20489;-84
2023/01/14 06:23:46;;;;;;;6.32;2.05;;;;;;;5.38;100.00;98601.34;2585049;28;20087;-83
2023/01/14 06:25:01;;;;;;;3.33;1.70;;;;;;;5.34;100.00;98608.28;2585818;28;20050;-87
2023/01/14 06:26:19;;;;;;;3.15;1.38;;;;;;;5.54;100.00;98601.28;2585610;28;20452;-85
2023/01/14 06:27:35;;;;;;;4.13;2.00;;;;;;;5.40;100.00;98606.53;2585219;28;20073;-84
2023/01/14 06:28:51;;;;;;;5.93;1.50;;;;;;;5.38;100.00;98601.34;2585302;28;20050;-85
2023/01/14 06:30:07;;;;;;;4.35;1.67;;;;;;;5.32;100.00;98606.59;2585927;28;20097;-83
2023/01/14 06:31:23;;;;;;;3.25;1.67;;;;;;;5.51;100.00;98602.13;2584614;28;20049;-84
2023/01/14 06:32:39;;;;;;;4.13;1.63;;;;;;;5.55;100.00;98603.00;2584937;28;20459;-84